Hlavní strana
METAR-TAF:

METAR-TAF

Letiště :

Bagdád, Irák

zeměpisná šířka: 33-15-45N, zeměpisná délka: 44-14-04E, výška: 35 m

Aktuální stav počasí

Zpráva byla vytvořena před 39 minutami, v 01:00 UTC
Západní vítr 18 kt
Teplota 12°C
Vlhkost vzduchu 82%
Tlak 1003 hPa
Viditelnost 10 km a více
Oblačno až skoro zataženo ve výšce 3000 ft

METAR: ORBI 260100Z 28018KT 9999 BKN030 12/09 Q1003 NOSIG

Čas: 04:39 (01:39 UTC)

Předpověď počasí

Zpráva byla vytvořena před 4 hodinami a 39 minutami, v 21:00 UTC
Předpověď platná od 26 v 00 UTC do 26 v 24 UTC
Západojihozápadní vítr 10 kt
Viditelnost: 6000 m
Skoro jasno ve výšce 2500 ft, Cumulonimbus.
Oblačno až skoro zataženo ve výšce 3000 ft
bouřka, slabé dešťové přeháňky

TAF: ORBI 252100Z 2600/2624 24010KT 6000 TS -SHRA FEW025CB BKN030

Stav a předpovědi počasí z více než 4 000 letišť (zprávy METAR a TAF).

Červené a žluté tečky na mapě představují dostupné meteorologické stanice.

Když kurzor umístíte na tečku, zobrazí se název stanice.

Pak kliknutím zobrazíte stav a předpověď počasí.

Chcete-li změnit mapu, kliknutím na zelené tlačítko se znaménkem +mapu přiblížíte, kliknutím na zelené tlačítko se znaménkem – mapu oddálíte a kliknutím na zelené šipky přejdete na sousední mapy.


METAR-TAF: